Webster, Wisconsin
Current Conditions -  °F | °C
As of 4:55 PM on Saturday 25 Oct 2014 (Local Time) from KRZN Reporting Station
Clear Clear  
Wind Chill: 61°   Ceiling: Unl
Heat Index: 61°   Visibility: 10mi
Dew Point: 20°   Wind: 12mph
Humidity: 21%   Direction: 300°WNW
Pressure: 29.98"   Gusts: NA
Location:  45.88°N, 92.37°W
Report Text: KRZN 252155Z AUTO 30010KT 10SM CLR 16/M06 A2998 RMK AO2 T01601064
Loading
Personal Weather Stations






























Interactive Weather Map
Tropical Storm Tracking
New forecast layout! Learn more

10-Day Weather Forecast

Advertisements
Track Severe Weather on mobile